sensor_id;sensor_type;location;lat;lon;timestamp;temperature;humidity
78896;HTU21D;68284;59.124;37.910;2023-06-14T00:02:05;16.49;57.49
78896;HTU21D;68284;59.124;37.910;2023-06-14T00:04:35;16.52;57.35
78896;HTU21D;68284;59.124;37.910;2023-06-14T00:07:37;16.52;57.35
78896;HTU21D;68284;59.124;37.910;2023-06-14T00:10:22;16.57;57.13
78896;HTU21D;68284;59.124;37.910;2023-06-14T00:13:09;16.59;57.06
78896;HTU21D;68284;59.124;37.910;2023-06-14T00:15:36;16.60;57.09
78896;HTU21D;68284;59.124;37.910;2023-06-14T00:18:03;16.61;57.17
78896;HTU21D;68284;59.124;37.910;2023-06-14T00:20:32;16.62;57.29
78896;HTU21D;68284;59.124;37.910;2023-06-14T00:23:17;16.62;57.21
78896;HTU21D;68284;59.124;37.910;2023-06-14T00:26:03;16.62;57.32
78896;HTU21D;68284;59.124;37.910;2023-06-14T00:28:30;16.62;56.98
78896;HTU21D;68284;59.124;37.910;2023-06-14T00:30:57;16.64;56.75
78896;HTU21D;68284;59.124;37.910;2023-06-14T00:33:23;16.66;56.67
78896;HTU21D;68284;59.124;37.910;2023-06-14T00:35:50;16.69;56.67
78896;HTU21D;68284;59.124;37.910;2023-06-14T00:38:20;16.74;56.68
78896;HTU21D;68284;59.124;37.910;2023-06-14T00:40:47;16.77;56.75
78896;HTU21D;68284;59.124;37.910;2023-06-14T00:43:13;16.81;56.81
78896;HTU21D;68284;59.124;37.910;2023-06-14T00:45:39;16.84;56.92
78896;HTU21D;68284;59.124;37.910;2023-06-14T00:48:06;16.85;56.90
78896;HTU21D;68284;59.124;37.910;2023-06-14T00:50:33;16.86;56.94
78896;HTU21D;68284;59.124;37.910;2023-06-14T00:53:01;16.87;56.95
78896;HTU21D;68284;59.124;37.910;2023-06-14T00:55:27;16.89;56.82
78896;HTU21D;68284;59.124;37.910;2023-06-14T00:57:55;16.89;56.62
78896;HTU21D;68284;59.124;37.910;2023-06-14T01:00:22;16.90;56.53
78896;HTU21D;68284;59.124;37.910;2023-06-14T01:03:07;16.92;56.37
78896;HTU21D;68284;59.124;37.910;2023-06-14T01:05:53;16.93;56.31
78896;HTU21D;68284;59.124;37.910;2023-06-14T01:08:31;16.92;56.15
78896;HTU21D;68284;59.124;37.910;2023-06-14T01:14:26;16.91;56.12
78896;HTU21D;68284;59.124;37.910;2023-06-14T01:17:17;16.90;56.25
78896;HTU21D;68284;59.124;37.910;2023-06-14T01:19:44;16.88;56.51
78896;HTU21D;68284;59.124;37.910;2023-06-14T01:22:15;16.86;56.59
78896;HTU21D;68284;59.124;37.910;2023-06-14T01:25:00;16.81;56.36
78896;HTU21D;68284;59.124;37.910;2023-06-14T01:27:26;16.80;56.24
78896;HTU21D;68284;59.124;37.910;2023-06-14T01:29:55;16.78;56.10
78896;HTU21D;68284;59.124;37.910;2023-06-14T01:32:29;16.79;55.92
78896;HTU21D;68284;59.124;37.910;2023-06-14T01:34:56;16.80;55.77
78896;HTU21D;68284;59.124;37.910;2023-06-14T01:37:22;16.81;55.72
78896;HTU21D;68284;59.124;37.910;2023-06-14T01:39:50;16.82;55.79
78896;HTU21D;68284;59.124;37.910;2023-06-14T01:42:19;16.84;55.91
78896;HTU21D;68284;59.124;37.910;2023-06-14T01:44:46;16.86;55.96
78896;HTU21D;68284;59.124;37.910;2023-06-14T01:47:14;16.86;55.76
78896;HTU21D;68284;59.124;37.910;2023-06-14T01:52:44;16.89;55.36
78896;HTU21D;68284;59.124;37.910;2023-06-14T01:55:10;16.90;55.20
78896;HTU21D;68284;59.124;37.910;2023-06-14T01:57:40;16.93;55.06
78896;HTU21D;68284;59.124;37.910;2023-06-14T02:00:07;16.95;54.90
78896;HTU21D;68284;59.124;37.910;2023-06-14T02:02:41;16.99;54.62
78896;HTU21D;68284;59.124;37.910;2023-06-14T02:05:08;17.03;54.49
78896;HTU21D;68284;59.124;37.910;2023-06-14T02:07:35;17.06;54.39
78896;HTU21D;68284;59.124;37.910;2023-06-14T02:10:20;17.11;54.44
78896;HTU21D;68284;59.124;37.910;2023-06-14T02:12:47;17.16;54.14
78896;HTU21D;68284;59.124;37.910;2023-06-14T02:15:14;17.18;53.89
78896;HTU21D;68284;59.124;37.910;2023-06-14T02:18:03;17.19;53.52
78896;HTU21D;68284;59.124;37.910;2023-06-14T02:20:32;17.19;53.20
78896;HTU21D;68284;59.124;37.910;2023-06-14T02:22:59;17.22;53.07
78896;HTU21D;68284;59.124;37.910;2023-06-14T02:25:26;17.23;52.94
78896;HTU21D;68284;59.124;37.910;2023-06-14T02:27:54;17.24;52.68
78896;HTU21D;68284;59.124;37.910;2023-06-14T02:30:21;17.29;52.48
78896;HTU21D;68284;59.124;37.910;2023-06-14T02:32:47;17.36;52.28
78896;HTU21D;68284;59.124;37.910;2023-06-14T02:37:59;17.46;52.11
78896;HTU21D;68284;59.124;37.910;2023-06-14T02:41:03;17.52;52.03
78896;HTU21D;68284;59.124;37.910;2023-06-14T02:43:48;17.56;51.90
78896;HTU21D;68284;59.124;37.910;2023-06-14T02:46:33;17.63;51.80
78896;HTU21D;68284;59.124;37.910;2023-06-14T02:49:18;17.66;51.73
78896;HTU21D;68284;59.124;37.910;2023-06-14T02:51:44;17.69;51.70
78896;HTU21D;68284;59.124;37.910;2023-06-14T02:54:11;17.70;51.69
78896;HTU21D;68284;59.124;37.910;2023-06-14T02:56:55;17.76;51.68
78896;HTU21D;68284;59.124;37.910;2023-06-14T02:59:22;17.81;51.51
78896;HTU21D;68284;59.124;37.910;2023-06-14T03:01:52;17.90;51.51
78896;HTU21D;68284;59.124;37.910;2023-06-14T03:04:18;17.98;51.47
78896;HTU21D;68284;59.124;37.910;2023-06-14T03:09:39;18.32;51.12
78896;HTU21D;68284;59.124;37.910;2023-06-14T03:12:08;18.49;50.88
78896;HTU21D;68284;59.124;37.910;2023-06-14T03:14:36;18.68;50.57
78896;HTU21D;68284;59.124;37.910;2023-06-14T03:17:04;18.82;50.44
78896;HTU21D;68284;59.124;37.910;2023-06-14T03:19:33;18.94;50.33
78896;HTU21D;68284;59.124;37.910;2023-06-14T03:22:00;19.02;50.31
78896;HTU21D;68284;59.124;37.910;2023-06-14T03:24:45;19.11;50.14
78896;HTU21D;68284;59.124;37.910;2023-06-14T03:30:00;19.31;49.79
78896;HTU21D;68284;59.124;37.910;2023-06-14T03:32:27;19.38;50.05
78896;HTU21D;68284;59.124;37.910;2023-06-14T03:34:53;19.46;49.93
78896;HTU21D;68284;59.124;37.910;2023-06-14T03:37:23;19.54;49.68
78896;HTU21D;68284;59.124;37.910;2023-06-14T03:39:50;19.56;49.71
78896;HTU21D;68284;59.124;37.910;2023-06-14T03:45:25;19.67;49.05
78896;HTU21D;68284;59.124;37.910;2023-06-14T03:50:56;19.77;48.31
78896;HTU21D;68284;59.124;37.910;2023-06-14T03:53:23;19.82;47.85
78896;HTU21D;68284;59.124;37.910;2023-06-14T03:55:51;19.86;47.47
78896;HTU21D;68284;59.124;37.910;2023-06-14T03:58:25;19.90;47.25
78896;HTU21D;68284;59.124;37.910;2023-06-14T04:03:38;20.06;47.06
78896;HTU21D;68284;59.124;37.910;2023-06-14T04:06:06;20.13;46.92
78896;HTU21D;68284;59.124;37.910;2023-06-14T04:08:52;20.19;46.86
78896;HTU21D;68284;59.124;37.910;2023-06-14T04:11:18;20.24;46.77
78896;HTU21D;68284;59.124;37.910;2023-06-14T04:13:45;20.30;46.60
78896;HTU21D;68284;59.124;37.910;2023-06-14T04:16:13;20.36;46.41
78896;HTU21D;68284;59.124;37.910;2023-06-14T04:18:40;20.36;46.36
78896;HTU21D;68284;59.124;37.910;2023-06-14T04:21:24;20.39;46.38
78896;HTU21D;68284;59.124;37.910;2023-06-14T04:23:55;20.46;46.29
78896;HTU21D;68284;59.124;37.910;2023-06-14T04:27:00;20.58;46.18
78896;HTU21D;68284;59.124;37.910;2023-06-14T04:29:32;20.70;46.17
78896;HTU21D;68284;59.124;37.910;2023-06-14T04:35:11;20.95;46.47
78896;HTU21D;68284;59.124;37.910;2023-06-14T04:37:40;21.05;46.93
78896;HTU21D;68284;59.124;37.910;2023-06-14T04:40:09;21.06;47.53
78896;HTU21D;68284;59.124;37.910;2023-06-14T04:42:38;21.03;47.96
78896;HTU21D;68284;59.124;37.910;2023-06-14T04:45:24;21.03;48.18
78896;HTU21D;68284;59.124;37.910;2023-06-14T04:47:59;21.08;48.28
78896;HTU21D;68284;59.124;37.910;2023-06-14T04:50:28;21.15;48.43
78896;HTU21D;68284;59.124;37.910;2023-06-14T04:52:57;21.21;48.54
78896;HTU21D;68284;59.124;37.910;2023-06-14T04:55:27;21.20;48.61
78896;HTU21D;68284;59.124;37.910;2023-06-14T04:57:55;21.18;48.82
78896;HTU21D;68284;59.124;37.910;2023-06-14T05:00:21;21.18;49.02
78896;HTU21D;68284;59.124;37.910;2023-06-14T05:02:49;21.20;49.10
78896;HTU21D;68284;59.124;37.910;2023-06-14T05:05:34;21.18;48.99
78896;HTU21D;68284;59.124;37.910;2023-06-14T05:08:00;21.19;49.13
78896;HTU21D;68284;59.124;37.910;2023-06-14T05:10:27;21.23;49.24
78896;HTU21D;68284;59.124;37.910;2023-06-14T05:12:54;21.30;49.26
78896;HTU21D;68284;59.124;37.910;2023-06-14T05:15:20;21.38;49.21
78896;HTU21D;68284;59.124;37.910;2023-06-14T05:17:51;21.48;49.04
78896;HTU21D;68284;59.124;37.910;2023-06-14T05:20:39;21.61;48.95
78896;HTU21D;68284;59.124;37.910;2023-06-14T05:23:08;21.65;48.76
78896;HTU21D;68284;59.124;37.910;2023-06-14T05:25:35;21.75;48.57
78896;HTU21D;68284;59.124;37.910;2023-06-14T05:28:01;21.82;48.28
78896;HTU21D;68284;59.124;37.910;2023-06-14T05:30:28;21.88;48.08
78896;HTU21D;68284;59.124;37.910;2023-06-14T05:32:56;21.96;47.87
78896;HTU21D;68284;59.124;37.910;2023-06-14T05:35:23;22.09;47.67
78896;HTU21D;68284;59.124;37.910;2023-06-14T05:37:49;22.21;47.39
78896;HTU21D;68284;59.124;37.910;2023-06-14T05:40:53;22.32;47.09
78896;HTU21D;68284;59.124;37.910;2023-06-14T05:46:24;22.54;46.70
78896;HTU21D;68284;59.124;37.910;2023-06-14T05:48:52;22.68;46.53
78896;HTU21D;68284;59.124;37.910;2023-06-14T05:51:38;22.87;46.35
78896;HTU21D;68284;59.124;37.910;2023-06-14T05:54:04;23.01;45.81
78896;HTU21D;68284;59.124;37.910;2023-06-14T05:56:31;23.17;45.02
78896;HTU21D;68284;59.124;37.910;2023-06-14T05:58:57;23.34;44.41
78896;HTU21D;68284;59.124;37.910;2023-06-14T06:01:42;23.45;44.26
78896;HTU21D;68284;59.124;37.910;2023-06-14T06:04:09;23.61;43.96
78896;HTU21D;68284;59.124;37.910;2023-06-14T06:06:54;23.81;43.81
78896;HTU21D;68284;59.124;37.910;2023-06-14T06:09:20;23.95;43.35
78896;HTU21D;68284;59.124;37.910;2023-06-14T06:11:47;24.05;42.21
78896;HTU21D;68284;59.124;37.910;2023-06-14T06:17:16;24.31;41.70
78896;HTU21D;68284;59.124;37.910;2023-06-14T06:22:28;24.66;39.47
78896;HTU21D;68284;59.124;37.910;2023-06-14T06:24:54;24.84;39.59
78896;HTU21D;68284;59.124;37.910;2023-06-14T06:27:39;25.03;39.67
78896;HTU21D;68284;59.124;37.910;2023-06-14T06:30:25;25.21;39.10
78896;HTU21D;68284;59.124;37.910;2023-06-14T06:32:52;25.37;39.00
78896;HTU21D;68284;59.124;37.910;2023-06-14T06:38:04;25.58;38.98
78896;HTU21D;68284;59.124;37.910;2023-06-14T06:40:30;25.68;38.73
78896;HTU21D;68284;59.124;37.910;2023-06-14T06:42:57;25.82;38.25
78896;HTU21D;68284;59.124;37.910;2023-06-14T06:45:26;25.88;37.59
78896;HTU21D;68284;59.124;37.910;2023-06-14T06:47:53;25.90;37.11
78896;HTU21D;68284;59.124;37.910;2023-06-14T06:50:19;25.90;36.88
78896;HTU21D;68284;59.124;37.910;2023-06-14T06:52:46;25.91;36.53
78896;HTU21D;68284;59.124;37.910;2023-06-14T06:55:31;25.92;36.38
78896;HTU21D;68284;59.124;37.910;2023-06-14T06:57:57;25.97;34.96
78896;HTU21D;68284;59.124;37.910;2023-06-14T07:00:23;25.99;35.18
78896;HTU21D;68284;59.124;37.910;2023-06-14T07:02:50;26.04;34.36
78896;HTU21D;68284;59.124;37.910;2023-06-14T07:05:17;26.05;33.58
78896;HTU21D;68284;59.124;37.910;2023-06-14T07:07:43;26.08;32.38
78896;HTU21D;68284;59.124;37.910;2023-06-14T07:10:09;26.07;32.09
78896;HTU21D;68284;59.124;37.910;2023-06-14T07:12:36;26.04;31.67
78896;HTU21D;68284;59.124;37.910;2023-06-14T07:15:08;25.97;31.80
78896;HTU21D;68284;59.124;37.910;2023-06-14T07:17:35;25.93;31.46
78896;HTU21D;68284;59.124;37.910;2023-06-14T07:20:03;25.93;31.64
78896;HTU21D;68284;59.124;37.910;2023-06-14T07:22:52;25.91;31.74
78896;HTU21D;68284;59.124;37.910;2023-06-14T07:25:19;25.88;31.70
78896;HTU21D;68284;59.124;37.910;2023-06-14T07:27:47;25.86;31.80
78896;HTU21D;68284;59.124;37.910;2023-06-14T07:30:13;25.80;31.18
78896;HTU21D;68284;59.124;37.910;2023-06-14T07:32:40;25.77;31.39
78896;HTU21D;68284;59.124;37.910;2023-06-14T07:35:06;25.73;31.54
78896;HTU21D;68284;59.124;37.910;2023-06-14T07:37:51;25.74;31.17
78896;HTU21D;68284;59.124;37.910;2023-06-14T07:40:18;25.72;30.96
78896;HTU21D;68284;59.124;37.910;2023-06-14T07:42:45;25.75;31.06
78896;HTU21D;68284;59.124;37.910;2023-06-14T07:45:13;25.87;30.83
78896;HTU21D;68284;59.124;37.910;2023-06-14T07:47:40;26.02;30.54
78896;HTU21D;68284;59.124;37.910;2023-06-14T07:50:07;26.17;30.44
78896;HTU21D;68284;59.124;37.910;2023-06-14T07:52:52;26.27;30.40
78896;HTU21D;68284;59.124;37.910;2023-06-14T07:55:37;26.34;30.12
78896;HTU21D;68284;59.124;37.910;2023-06-14T07:58:22;26.46;29.61
78896;HTU21D;68284;59.124;37.910;2023-06-14T08:01:06;26.53;29.72
78896;HTU21D;68284;59.124;37.910;2023-06-14T08:03:34;26.53;29.77
78896;HTU21D;68284;59.124;37.910;2023-06-14T08:06:00;26.61;29.57
78896;HTU21D;68284;59.124;37.910;2023-06-14T08:08:27;26.71;29.43
78896;HTU21D;68284;59.124;37.910;2023-06-14T08:11:12;26.82;28.84
78896;HTU21D;68284;59.124;37.910;2023-06-14T08:13:39;26.93;28.43
78896;HTU21D;68284;59.124;37.910;2023-06-14T08:16:06;27.01;28.29
78896;HTU21D;68284;59.124;37.910;2023-06-14T08:18:51;27.04;28.13
78896;HTU21D;68284;59.124;37.910;2023-06-14T08:21:37;27.10;28.19
78896;HTU21D;68284;59.124;37.910;2023-06-14T08:24:03;27.24;27.91
78896;HTU21D;68284;59.124;37.910;2023-06-14T08:26:30;27.37;27.81
78896;HTU21D;68284;59.124;37.910;2023-06-14T08:28:58;27.46;26.58
78896;HTU21D;68284;59.124;37.910;2023-06-14T08:31:25;27.58;26.14
78896;HTU21D;68284;59.124;37.910;2023-06-14T08:34:09;27.71;25.94
78896;HTU21D;68284;59.124;37.910;2023-06-14T08:36:54;27.80;25.87
78896;HTU21D;68284;59.124;37.910;2023-06-14T08:42:07;27.66;25.33
78896;HTU21D;68284;59.124;37.910;2023-06-14T08:44:34;27.61;25.58
78896;HTU21D;68284;59.124;37.910;2023-06-14T08:47:01;27.59;26.10
78896;HTU21D;68284;59.124;37.910;2023-06-14T08:49:29;27.59;26.51
78896;HTU21D;68284;59.124;37.910;2023-06-14T08:51:58;27.56;25.98
78896;HTU21D;68284;59.124;37.910;2023-06-14T08:54:44;27.50;25.66
78896;HTU21D;68284;59.124;37.910;2023-06-14T08:57:30;27.53;25.75
78896;HTU21D;68284;59.124;37.910;2023-06-14T08:59:56;27.58;25.54
78896;HTU21D;68284;59.124;37.910;2023-06-14T09:02:41;27.60;25.38
78896;HTU21D;68284;59.124;37.910;2023-06-14T09:05:10;27.65;25.09
78896;HTU21D;68284;59.124;37.910;2023-06-14T09:07:37;27.75;25.01
78896;HTU21D;68284;59.124;37.910;2023-06-14T09:10:09;27.93;24.62
78896;HTU21D;68284;59.124;37.910;2023-06-14T09:12:39;28.08;24.11
78896;HTU21D;68284;59.124;37.910;2023-06-14T09:15:07;28.17;23.97
78896;HTU21D;68284;59.124;37.910;2023-06-14T09:17:38;28.29;24.11
78896;HTU21D;68284;59.124;37.910;2023-06-14T09:20:06;28.46;23.76
78896;HTU21D;68284;59.124;37.910;2023-06-14T09:22:39;28.55;23.48
78896;HTU21D;68284;59.124;37.910;2023-06-14T09:27:51;28.67;23.46
78896;HTU21D;68284;59.124;37.910;2023-06-14T09:30:20;28.70;23.71
78896;HTU21D;68284;59.124;37.910;2023-06-14T09:32:47;28.70;23.46
78896;HTU21D;68284;59.124;37.910;2023-06-14T09:35:18;28.70;23.57
78896;HTU21D;68284;59.124;37.910;2023-06-14T09:37:47;28.82;23.50
78896;HTU21D;68284;59.124;37.910;2023-06-14T09:40:20;28.90;23.28
78896;HTU21D;68284;59.124;37.910;2023-06-14T09:42:47;28.99;23.21
78896;HTU21D;68284;59.124;37.910;2023-06-14T09:45:14;29.08;23.11
78896;HTU21D;68284;59.124;37.910;2023-06-14T09:47:47;29.14;23.21
78896;HTU21D;68284;59.124;37.910;2023-06-14T09:50:34;29.23;23.07
78896;HTU21D;68284;59.124;37.910;2023-06-14T09:53:07;29.15;23.02
78896;HTU21D;68284;59.124;37.910;2023-06-14T09:55:56;29.12;22.84
78896;HTU21D;68284;59.124;37.910;2023-06-14T09:58:27;29.07;23.20
78896;HTU21D;68284;59.124;37.910;2023-06-14T10:04:04;29.16;23.59
78896;HTU21D;68284;59.124;37.910;2023-06-14T10:09:17;29.05;22.53
78896;HTU21D;68284;59.124;37.910;2023-06-14T10:11:44;29.13;22.49
78896;HTU21D;68284;59.124;37.910;2023-06-14T10:14:12;29.20;22.38
78896;HTU21D;68284;59.124;37.910;2023-06-14T10:17:03;29.32;22.34
78896;HTU21D;68284;59.124;37.910;2023-06-14T10:19:42;29.41;22.28
78896;HTU21D;68284;59.124;37.910;2023-06-14T10:22:33;29.62;22.29
78896;HTU21D;68284;59.124;37.910;2023-06-14T10:25:01;29.88;21.76
78896;HTU21D;68284;59.124;37.910;2023-06-14T10:27:46;30.13;21.63
78896;HTU21D;68284;59.124;37.910;2023-06-14T10:30:14;30.40;21.60
78896;HTU21D;68284;59.124;37.910;2023-06-14T10:33:03;30.77;21.36
78896;HTU21D;68284;59.124;37.910;2023-06-14T10:35:29;31.13;21.18
78896;HTU21D;68284;59.124;37.910;2023-06-14T10:38:06;31.51;20.80
78896;HTU21D;68284;59.124;37.910;2023-06-14T10:40:52;31.88;20.50
78896;HTU21D;68284;59.124;37.910;2023-06-14T10:47:00;32.78;19.56
78896;HTU21D;68284;59.124;37.910;2023-06-14T10:49:43;32.89;19.41
78896;HTU21D;68284;59.124;37.910;2023-06-14T10:52:12;32.70;19.37
78896;HTU21D;68284;59.124;37.910;2023-06-14T10:55:17;32.34;19.49
78896;HTU21D;68284;59.124;37.910;2023-06-14T10:57:51;31.92;19.66
78896;HTU21D;68284;59.124;37.910;2023-06-14T11:00:25;31.58;19.69
78896;HTU21D;68284;59.124;37.910;2023-06-14T11:03:31;31.29;19.89
78896;HTU21D;68284;59.124;37.910;2023-06-14T11:06:15;31.36;20.07
78896;HTU21D;68284;59.124;37.910;2023-06-14T11:11:49;32.24;19.50
78896;HTU21D;68284;59.124;37.910;2023-06-14T11:14:17;32.79;19.02
78896;HTU21D;68284;59.124;37.910;2023-06-14T11:16:48;33.31;18.29
78896;HTU21D;68284;59.124;37.910;2023-06-14T11:19:15;33.82;17.89
78896;HTU21D;68284;59.124;37.910;2023-06-14T11:21:47;34.45;17.25
78896;HTU21D;68284;59.124;37.910;2023-06-14T11:24:14;34.97;16.51
78896;HTU21D;68284;59.124;37.910;2023-06-14T11:26:40;35.43;16.15
78896;HTU21D;68284;59.124;37.910;2023-06-14T11:29:07;35.85;15.65
78896;HTU21D;68284;59.124;37.910;2023-06-14T11:31:35;36.25;15.47
78896;HTU21D;68284;59.124;37.910;2023-06-14T11:34:02;36.60;14.90
78896;HTU21D;68284;59.124;37.910;2023-06-14T11:36:46;36.99;14.55
78896;HTU21D;68284;59.124;37.910;2023-06-14T11:39:32;37.04;14.48
78896;HTU21D;68284;59.124;37.910;2023-06-14T11:41:58;36.88;14.29
78896;HTU21D;68284;59.124;37.910;2023-06-14T11:44:45;36.45;14.44
78896;HTU21D;68284;59.124;37.910;2023-06-14T11:47:12;35.97;14.76
78896;HTU21D;68284;59.124;37.910;2023-06-14T11:49:58;35.65;14.91
78896;HTU21D;68284;59.124;37.910;2023-06-14T11:52:43;35.75;15.02
78896;HTU21D;68284;59.124;37.910;2023-06-14T11:55:10;35.83;14.69
78896;HTU21D;68284;59.124;37.910;2023-06-14T11:57:38;35.69;14.58
78896;HTU21D;68284;59.124;37.910;2023-06-14T12:00:06;35.35;14.95
78896;HTU21D;68284;59.124;37.910;2023-06-14T12:02:42;35.16;15.30
78896;HTU21D;68284;59.124;37.910;2023-06-14T12:05:27;35.56;15.01
78896;HTU21D;68284;59.124;37.910;2023-06-14T12:08:01;36.12;14.71
78896;HTU21D;68284;59.124;37.910;2023-06-14T12:10:28;36.64;14.11
78896;HTU21D;68284;59.124;37.910;2023-06-14T12:16:17;37.82;13.28
78896;HTU21D;68284;59.124;37.910;2023-06-14T12:18:44;38.26;12.91
78896;HTU21D;68284;59.124;37.910;2023-06-14T12:21:47;38.92;12.53
78896;HTU21D;68284;59.124;37.910;2023-06-14T12:24:14;39.45;12.01
78896;HTU21D;68284;59.124;37.910;2023-06-14T12:26:41;39.89;11.36
78896;HTU21D;68284;59.124;37.910;2023-06-14T12:29:08;40.29;10.96
78896;HTU21D;68284;59.124;37.910;2023-06-14T12:31:35;40.61;10.69
78896;HTU21D;68284;59.124;37.910;2023-06-14T12:34:19;40.91;10.43
78896;HTU21D;68284;59.124;37.910;2023-06-14T12:36:47;40.89;10.24
78896;HTU21D;68284;59.124;37.910;2023-06-14T12:39:33;40.44;10.25
78896;HTU21D;68284;59.124;37.910;2023-06-14T12:42:19;40.08;10.27
78896;HTU21D;68284;59.124;37.910;2023-06-14T12:44:45;39.93;10.24
78896;HTU21D;68284;59.124;37.910;2023-06-14T12:47:12;39.62;10.56
78896;HTU21D;68284;59.124;37.910;2023-06-14T12:49:39;38.96;11.07
78896;HTU21D;68284;59.124;37.910;2023-06-14T12:52:24;38.44;11.62
78896;HTU21D;68284;59.124;37.910;2023-06-14T12:55:09;38.29;11.85
78896;HTU21D;68284;59.124;37.910;2023-06-14T12:57:37;38.37;11.73
78896;HTU21D;68284;59.124;37.910;2023-06-14T13:06:14;39.38;10.97
78896;HTU21D;68284;59.124;37.910;2023-06-14T13:08:59;39.52;10.91
78896;HTU21D;68284;59.124;37.910;2023-06-14T13:11:27;39.76;10.70
78896;HTU21D;68284;59.124;37.910;2023-06-14T13:13:54;40.08;10.65
78896;HTU21D;68284;59.124;37.910;2023-06-14T13:16:24;40.46;10.30
78896;HTU21D;68284;59.124;37.910;2023-06-14T13:18:55;40.56;9.92
78896;HTU21D;68284;59.124;37.910;2023-06-14T13:21:23;40.33;10.03
78896;HTU21D;68284;59.124;37.910;2023-06-14T13:23:50;40.01;10.27
78896;HTU21D;68284;59.124;37.910;2023-06-14T13:26:16;39.77;10.46
78896;HTU21D;68284;59.124;37.910;2023-06-14T13:28:44;39.62;10.72
78896;HTU21D;68284;59.124;37.910;2023-06-14T13:31:11;39.49;10.88
78896;HTU21D;68284;59.124;37.910;2023-06-14T13:33:57;39.39;10.84
78896;HTU21D;68284;59.124;37.910;2023-06-14T13:36:23;38.81;10.88
78896;HTU21D;68284;59.124;37.910;2023-06-14T13:38:50;38.00;11.56
78896;HTU21D;68284;59.124;37.910;2023-06-14T13:41:18;37.67;11.92
78896;HTU21D;68284;59.124;37.910;2023-06-14T13:43:45;37.58;12.04
78896;HTU21D;68284;59.124;37.910;2023-06-14T13:46:49;37.66;12.17
78896;HTU21D;68284;59.124;37.910;2023-06-14T13:49:34;37.92;11.91
78896;HTU21D;68284;59.124;37.910;2023-06-14T13:52:28;38.23;11.48
78896;HTU21D;68284;59.124;37.910;2023-06-14T13:55:36;38.08;11.45
78896;HTU21D;68284;59.124;37.910;2023-06-14T13:58:07;38.01;11.50
78896;HTU21D;68284;59.124;37.910;2023-06-14T14:04:13;38.37;11.66
78896;HTU21D;68284;59.124;37.910;2023-06-14T14:07:00;38.88;11.06
78896;HTU21D;68284;59.124;37.910;2023-06-14T14:09:41;39.20;10.78
78896;HTU21D;68284;59.124;37.910;2023-06-14T14:12:09;39.33;10.65
78896;HTU21D;68284;59.124;37.910;2023-06-14T14:14:37;39.55;10.42
78896;HTU21D;68284;59.124;37.910;2023-06-14T14:17:03;39.79;10.21
78896;HTU21D;68284;59.124;37.910;2023-06-14T14:19:30;39.94;10.05
78896;HTU21D;68284;59.124;37.910;2023-06-14T14:21:57;39.99;10.08
78896;HTU21D;68284;59.124;37.910;2023-06-14T14:24:43;40.21;9.90
78896;HTU21D;68284;59.124;37.910;2023-06-14T14:27:10;40.36;9.69
78896;HTU21D;68284;59.124;37.910;2023-06-14T14:29:56;40.24;9.75
78896;HTU21D;68284;59.124;37.910;2023-06-14T14:38:26;40.29;9.55
78896;HTU21D;68284;59.124;37.910;2023-06-14T14:41:02;39.87;9.66
78896;HTU21D;68284;59.124;37.910;2023-06-14T14:43:38;39.66;9.90
78896;HTU21D;68284;59.124;37.910;2023-06-14T14:46:11;39.57;9.84
78896;HTU21D;68284;59.124;37.910;2023-06-14T14:51:41;39.30;10.16
78896;HTU21D;68284;59.124;37.910;2023-06-14T14:54:26;39.21;10.30
78896;HTU21D;68284;59.124;37.910;2023-06-14T14:56:54;39.37;10.19
78896;HTU21D;68284;59.124;37.910;2023-06-14T14:59:21;39.69;9.93
78896;HTU21D;68284;59.124;37.910;2023-06-14T15:02:06;39.95;9.77
78896;HTU21D;68284;59.124;37.910;2023-06-14T15:04:33;39.98;9.75
78896;HTU21D;68284;59.124;37.910;2023-06-14T15:07:02;40.09;9.25
78896;HTU21D;68284;59.124;37.910;2023-06-14T15:12:34;39.98;9.40
78896;HTU21D;68284;59.124;37.910;2023-06-14T15:15:13;39.74;9.47
78896;HTU21D;68284;59.124;37.910;2023-06-14T15:18:05;39.70;9.53
78896;HTU21D;68284;59.124;37.910;2023-06-14T15:20:53;39.57;9.55
78896;HTU21D;68284;59.124;37.910;2023-06-14T15:23:20;39.30;9.82
78896;HTU21D;68284;59.124;37.910;2023-06-14T15:26:07;39.09;9.91
78896;HTU21D;68284;59.124;37.910;2023-06-14T15:28:33;39.00;10.11
78896;HTU21D;68284;59.124;37.910;2023-06-14T15:31:01;39.05;10.02
78896;HTU21D;68284;59.124;37.910;2023-06-14T15:33:52;39.03;9.76
78896;HTU21D;68284;59.124;37.910;2023-06-14T15:36:37;38.83;9.79
78896;HTU21D;68284;59.124;37.910;2023-06-14T15:39:03;38.69;10.01
78896;HTU21D;68284;59.124;37.910;2023-06-14T15:41:30;38.62;10.01
78896;HTU21D;68284;59.124;37.910;2023-06-14T15:44:00;38.63;9.82
78896;HTU21D;68284;59.124;37.910;2023-06-14T15:46:27;38.51;9.88
78896;HTU21D;68284;59.124;37.910;2023-06-14T15:48:54;38.38;9.95
78896;HTU21D;68284;59.124;37.910;2023-06-14T15:51:40;38.28;10.14
78896;HTU21D;68284;59.124;37.910;2023-06-14T15:54:07;38.40;10.01
78896;HTU21D;68284;59.124;37.910;2023-06-14T15:56:34;38.34;9.96
78896;HTU21D;68284;59.124;37.910;2023-06-14T15:59:01;38.04;10.14
78896;HTU21D;68284;59.124;37.910;2023-06-14T16:01:27;37.71;10.08
78896;HTU21D;68284;59.124;37.910;2023-06-14T16:03:54;37.43;10.39
78896;HTU21D;68284;59.124;37.910;2023-06-14T16:06:26;37.15;10.70
78896;HTU21D;68284;59.124;37.910;2023-06-14T16:08:58;36.99;10.75
78896;HTU21D;68284;59.124;37.910;2023-06-14T16:11:24;36.85;10.85
78896;HTU21D;68284;59.124;37.910;2023-06-14T16:14:15;36.71;11.09
78896;HTU21D;68284;59.124;37.910;2023-06-14T16:17:09;36.69;11.07
78896;HTU21D;68284;59.124;37.910;2023-06-14T16:19:44;36.61;11.16
78896;HTU21D;68284;59.124;37.910;2023-06-14T16:25:20;36.21;11.50
78896;HTU21D;68284;59.124;37.910;2023-06-14T16:27:47;36.18;11.56
78896;HTU21D;68284;59.124;37.910;2023-06-14T16:30:32;36.16;11.53
78896;HTU21D;68284;59.124;37.910;2023-06-14T16:32:59;36.02;11.51
78896;HTU21D;68284;59.124;37.910;2023-06-14T16:35:26;35.77;11.62
78896;HTU21D;68284;59.124;37.910;2023-06-14T16:38:05;35.51;11.90
78896;HTU21D;68284;59.124;37.910;2023-06-14T16:40:43;35.35;12.08
78896;HTU21D;68284;59.124;37.910;2023-06-14T16:43:11;35.25;12.13
78896;HTU21D;68284;59.124;37.910;2023-06-14T16:49:07;35.26;12.20
78896;HTU21D;68284;59.124;37.910;2023-06-14T16:51:40;35.22;12.31
78896;HTU21D;68284;59.124;37.910;2023-06-14T16:54:07;35.19;12.48
78896;HTU21D;68284;59.124;37.910;2023-06-14T16:59:26;34.94;12.84
78896;HTU21D;68284;59.124;37.910;2023-06-14T17:04:49;34.62;13.13
78896;HTU21D;68284;59.124;37.910;2023-06-14T17:07:38;34.50;13.50
78896;HTU21D;68284;59.124;37.910;2023-06-14T17:10:25;34.40;13.48
78896;HTU21D;68284;59.124;37.910;2023-06-14T17:12:53;34.23;13.68